Beckley, WV

1:58 PM EDT on October 31, 2014 (GMT -0400)
Yeager Airport | Change Station
CLOSE
Current Station
Airport
Location: Charleston,
Elevation: 981 ft
Nearby Weather Stations

Elev 981 ft 38.38 °N, 81.59 °W | Updated 1 hour ago

Overcast
Overcast
48 °F
Feels Like 48 °F
N
5
Wind Variable Wind from South

Today
High -- | Low -- °F
--% Chance of Precip.
Yesterday
High -- | Low -- °F
Precip. -- in
7:49 AM 6:27 PM
First Quarter, 57% visible
Pressure 29.93 in
Visibility 9.0 miles
Clouds Scattered Clouds 2500 ft
Scattered Clouds 6000 ft
Scattered Clouds 9000 ft
Mostly Cloudy 30000 ft
Dew Point 37 °F
Humidity 66%
Rainfall 0.00 in
Snow Depth Not available.
UV 2 out of 12
Pollen .10 out of 12
Air Quality Not available.
Flu Activity Not available.
METAR KCRW 311654Z 18004KT 9SM SCT025 SCT060 SCT090 BKN300 09/03 A2992 RMK AO2 SLP133 T00890028

More Conditions Fewer Conditions

Pressure 29.93 in
Visibility 9.0 miles
Clouds Scattered Clouds 2500 ft
Scattered Clouds 6000 ft
Scattered Clouds 9000 ft
Mostly Cloudy 30000 ft
Dew Point 37 °F
Humidity 66%
Rainfall 0.00 in
Snow Depth Not available.
UV 2 out of 12
Pollen .10 out of 12
Air Quality Not available.
Flu Activity Not available.
METAR KCRW 311654Z 18004KT 9SM SCT025 SCT060 SCT090 BKN300 09/03 A2992 RMK AO2 SLP133 T00890028

More Conditions Fewer Conditions

10-Day Weather Forecast

Almanac

Astronomy

Oct. 31, 2014 Rise Set
Actual Time
Civil Twilight
Nautical Twilight
Astronomical Twilight
Moon
Length of Visible Light
Length of Day
Tomorrow will be .
, % of the Moon is Illuminated

Today's Extremes

State Highs State Lows

Community

WunderPhotos

Upload Photos

1,766,673 photos uploaded!

WunderBlogs® & News

Nearby

Air Quality

  Air Quality AQ Index Pollutant
Not available.

Snow Depth

Station Depth Elevation

Earthquake Activity

City Distance Mag. Time & Date
Minimum magnitude displayed is 2.5.

Coastal Water Temperatures

Place Temperature

Nearby Weather Stations